Time;durP1;ratioP1;P1;durP2;ratioP2;P2;SDS_P1;SDS_P2;PMS_P1;PMS_P2;Temp;Humidity;BMP_temperature;BMP_pressure;BME280_temperature;BME280_humidity;BME280_pressure;Samples;Min_cycle;Max_cycle;Signal;HPM_P1;HPM_P2
2023/08/23 00:01:03;;;;;;;3.77;3.47;;;21.40;99.90;;;;;;5010370;28;20464;-66
2023/08/23 00:03:30;;;;;;;3.57;2.80;;;21.40;99.90;;;;;;5010291;28;20462;-67
2023/08/23 00:05:56;;;;;;;3.53;2.80;;;21.30;99.90;;;;;;5010686;28;21185;-66
2023/08/23 00:08:24;;;;;;;3.03;2.83;;;21.30;99.90;;;;;;5009898;28;20459;-66
2023/08/23 00:10:54;;;;;;;3.27;3.07;;;21.30;99.90;;;;;;5010197;28;20867;-66
2023/08/23 00:13:21;;;;;;;4.50;3.20;;;21.20;99.90;;;;;;5010199;28;20550;-66
2023/08/23 00:15:47;;;;;;;3.00;2.80;;;21.20;99.90;;;;;;5010361;28;20461;-66
2023/08/23 00:18:14;;;;;;;4.10;3.10;;;21.10;99.90;;;;;;5010242;28;20452;-66
2023/08/23 00:20:41;;;;;;;3.47;3.17;;;21.10;99.90;;;;;;5001965;28;20483;-66
2023/08/23 00:23:09;;;;;;;3.50;3.20;;;21.10;99.90;;;;;;5010285;28;20493;-66
2023/08/23 00:25:37;;;;;;;6.00;3.53;;;21.10;99.90;;;;;;5011860;28;23109;-67
2023/08/23 00:28:04;;;;;;;5.10;3.00;;;21.10;99.90;;;;;;5014360;28;20460;-66
2023/08/23 00:30:30;;;;;;;3.40;3.07;;;21.10;99.90;;;;;;5013445;28;20491;-67
2023/08/23 00:32:57;;;;;;;3.60;3.10;;;21.00;99.90;;;;;;5014155;28;20458;-66
2023/08/23 00:35:24;;;;;;;3.70;2.90;;;21.00;99.90;;;;;;5014063;28;20463;-66
2023/08/23 00:37:50;;;;;;;3.53;3.23;;;21.00;99.90;;;;;;5013963;28;20945;-66
2023/08/23 00:40:20;;;;;;;3.83;3.53;;;20.90;99.90;;;;;;5013603;28;20477;-67
2023/08/23 00:42:48;;;;;;;3.90;3.60;;;20.90;99.90;;;;;;5014127;28;20528;-66
2023/08/23 00:45:15;;;;;;;3.70;3.37;;;20.90;99.90;;;;;;5014156;28;20466;-66
2023/08/23 00:47:42;;;;;;;5.10;3.60;;;20.90;99.90;;;;;;5013523;28;20453;-66
2023/08/23 00:50:09;;;;;;;3.47;3.17;;;20.90;99.90;;;;;;5013534;28;20492;-66
2023/08/23 00:52:36;;;;;;;4.40;4.00;;;20.90;99.90;;;;;;5013730;28;20462;-66
2023/08/23 00:55:03;;;;;;;3.43;3.13;;;20.80;99.90;;;;;;5014139;28;20461;-66
2023/08/23 00:57:30;;;;;;;3.67;3.37;;;20.80;99.90;;;;;;5013566;28;20463;-66
2023/08/23 00:59:58;;;;;;;3.90;3.50;;;20.70;99.90;;;;;;5013829;28;20996;-66
2023/08/23 01:02:25;;;;;;;4.03;3.60;;;20.70;99.90;;;;;;5013553;28;20827;-66
2023/08/23 01:04:51;;;;;;;3.90;3.50;;;20.70;99.90;;;;;;5013906;28;20475;-66
2023/08/23 01:07:24;;;;;;;4.00;3.47;;;20.70;99.90;;;;;;5013426;28;20484;-66
2023/08/23 01:09:59;;;;;;;3.60;3.30;;;20.70;99.90;;;;;;5013388;28;20581;-67
2023/08/23 01:12:34;;;;;;;4.07;3.67;;;20.60;99.90;;;;;;5013560;28;20454;-66
2023/08/23 01:15:06;;;;;;;4.37;3.23;;;20.60;99.90;;;;;;5013553;28;20452;-66
2023/08/23 01:17:33;;;;;;;4.47;3.57;;;20.60;99.90;;;;;;5013209;28;20545;-66
2023/08/23 01:20:00;;;;;;;4.00;3.60;;;20.60;99.90;;;;;;5013087;28;20507;-66
2023/08/23 01:22:33;;;;;;;3.73;3.43;;;20.60;99.90;;;;;;5013097;28;21078;-66
2023/08/23 01:25:01;;;;;;;3.33;3.03;;;20.50;99.90;;;;;;5013472;28;20480;-67
2023/08/23 01:27:29;;;;;;;3.83;3.53;;;20.50;99.90;;;;;;5012892;28;20890;-66
2023/08/23 01:29:55;;;;;;;3.97;3.40;;;20.50;99.90;;;;;;5012988;28;21012;-66
2023/08/23 01:32:41;;;;;;;4.77;3.77;;;20.50;99.90;;;;;;5109850;22;20502;-69
2023/08/23 01:35:13;;;;;;;3.43;3.13;;;20.50;99.90;;;;;;5052845;28;20458;-69
2023/08/23 01:37:41;;;;;;;3.80;3.30;;;20.40;99.90;;;;;;5052200;28;20832;-69
2023/08/23 01:40:11;;;;;;;3.87;3.57;;;20.40;99.90;;;;;;5052251;28;20475;-69
2023/08/23 01:42:39;;;;;;;3.63;3.33;;;20.40;99.90;;;;;;5052469;28;20451;-69
2023/08/23 01:45:08;;;;;;;3.93;3.63;;;20.40;99.90;;;;;;5052690;28;20530;-69
2023/08/23 01:47:34;;;;;;;3.60;3.30;;;20.40;99.90;;;;;;5052290;28;20530;-69
2023/08/23 01:50:01;;;;;;;4.23;3.83;;;20.40;99.90;;;;;;5052173;28;20488;-69
2023/08/23 01:52:28;;;;;;;3.50;3.20;;;20.40;99.90;;;;;;5052486;28;20463;-69
2023/08/23 01:54:55;;;;;;;4.00;3.60;;;20.30;99.90;;;;;;5052432;28;20502;-69
2023/08/23 01:57:23;;;;;;;4.30;3.90;;;20.30;99.90;;;;;;5052477;28;20475;-69
2023/08/23 01:59:50;;;;;;;4.80;3.80;;;20.30;99.90;;;;;;5051981;28;20475;-69
2023/08/23 02:02:17;;;;;;;5.07;4.57;;;20.30;99.90;;;;;;5052160;28;20456;-69
2023/08/23 02:04:43;;;;;;;3.70;3.40;;;20.20;99.90;;;;;;5051928;28;20851;-69
2023/08/23 02:07:10;;;;;;;3.37;3.07;;;20.20;99.90;;;;;;5052102;28;20466;-69
2023/08/23 02:09:37;;;;;;;4.50;4.10;;;20.30;99.90;;;;;;5051698;28;20492;-69
2023/08/23 02:12:04;;;;;;;4.80;3.90;;;20.30;99.90;;;;;;5051799;28;21166;-69
2023/08/23 02:14:32;;;;;;;4.00;3.70;;;20.30;99.90;;;;;;5051895;28;20459;-69
2023/08/23 02:16:59;;;;;;;3.93;3.63;;;20.30;99.90;;;;;;5051716;28;20466;-69
2023/08/23 02:19:25;;;;;;;4.40;3.83;;;20.30;99.90;;;;;;5051874;28;20498;-69
2023/08/23 02:21:52;;;;;;;5.67;3.77;;;20.30;99.90;;;;;;5043251;28;20457;-69
2023/08/23 02:24:19;;;;;;;4.10;3.80;;;20.30;99.90;;;;;;5051854;28;20456;-69
2023/08/23 02:26:46;;;;;;;4.90;4.23;;;20.30;99.90;;;;;;5051474;28;20460;-69
2023/08/23 02:29:13;;;;;;;4.53;4.13;;;20.30;99.90;;;;;;5051623;28;20471;-69
2023/08/23 02:31:41;;;;;;;3.80;3.50;;;20.30;99.90;;;;;;5051056;28;20459;-69
2023/08/23 02:34:07;;;;;;;4.47;4.07;;;20.20;99.90;;;;;;5051696;28;20455;-69
2023/08/23 02:36:34;;;;;;;4.07;3.67;;;20.20;99.90;;;;;;5051182;28;20961;-69
2023/08/23 02:39:01;;;;;;;4.50;4.10;;;20.20;99.90;;;;;;5051543;28;20472;-69
2023/08/23 02:41:28;;;;;;;6.13;4.30;;;20.20;99.90;;;;;;5051230;28;20452;-69
2023/08/23 02:43:54;;;;;;;5.03;3.83;;;20.20;99.90;;;;;;5043389;28;20458;-69
2023/08/23 02:46:21;;;;;;;2.93;2.70;;;20.20;99.90;;;;;;5051402;28;20455;-69
2023/08/23 02:48:49;;;;;;;4.50;3.83;;;20.20;99.90;;;;;;5050264;28;20473;-69
2023/08/23 02:51:16;;;;;;;4.43;4.03;;;20.20;99.90;;;;;;5050924;28;20483;-69
2023/08/23 02:53:43;;;;;;;4.60;4.00;;;20.20;99.90;;;;;;5051030;28;20467;-69
2023/08/23 02:56:09;;;;;;;3.90;3.40;;;20.20;99.90;;;;;;5051191;28;20959;-69
2023/08/23 02:58:36;;;;;;;3.90;3.60;;;20.10;99.90;;;;;;5050714;28;20462;-69
2023/08/23 03:01:03;;;;;;;7.83;4.00;;;20.10;99.90;;;;;;5050681;28;20467;-68
2023/08/23 03:03:30;;;;;;;4.00;3.60;;;20.10;99.90;;;;;;5051215;28;20955;-68
2023/08/23 03:05:58;;;;;;;5.00;4.20;;;20.10;99.90;;;;;;5042910;28;20456;-68
2023/08/23 03:08:26;;;;;;;5.03;4.03;;;20.00;99.90;;;;;;5050842;28;20463;-68
2023/08/23 03:10:53;;;;;;;4.27;3.90;;;20.00;99.90;;;;;;5050247;28;20480;-68
2023/08/23 03:13:19;;;;;;;5.30;4.03;;;20.00;99.90;;;;;;5050936;28;20959;-68
2023/08/23 03:15:53;;;;;;;4.07;3.67;;;20.00;99.90;;;;;;5050600;28;20455;-68
2023/08/23 03:18:20;;;;;;;4.53;3.63;;;19.90;99.90;;;;;;5050663;28;20467;-68
2023/08/23 03:20:48;;;;;;;4.50;4.10;;;19.90;99.90;;;;;;5050117;28;20474;-68
2023/08/23 03:23:16;;;;;;;6.20;4.77;;;19.90;99.90;;;;;;5050779;28;20824;-68
2023/08/23 03:25:45;;;;;;;7.13;4.27;;;19.90;99.90;;;;;;5050385;28;20456;-68
2023/08/23 03:28:12;;;;;;;5.90;4.37;;;19.90;99.90;;;;;;5050475;28;20986;-68
2023/08/23 03:30:39;;;;;;;3.87;3.57;;;19.80;99.90;;;;;;5049648;28;20480;-68
2023/08/23 03:33:06;;;;;;;4.50;4.10;;;19.80;99.90;;;;;;5050558;28;20466;-68
2023/08/23 03:35:33;;;;;;;3.90;3.60;;;19.90;99.90;;;;;;5050468;28;20463;-68
2023/08/23 03:38:00;;;;;;;4.40;4.00;;;19.90;99.90;;;;;;5050452;28;20471;-68
2023/08/23 03:40:28;;;;;;;4.70;4.20;;;19.90;99.90;;;;;;5050034;28;21223;-68
2023/08/23 03:42:54;;;;;;;4.37;3.97;;;19.90;99.90;;;;;;5050142;28;20471;-68
2023/08/23 03:45:21;;;;;;;5.70;4.27;;;19.90;99.90;;;;;;5050503;28;20471;-68
2023/08/23 03:47:48;;;;;;;5.20;4.70;;;20.00;99.90;;;;;;5049871;28;20841;-68
2023/08/23 03:50:14;;;;;;;5.50;3.90;;;20.00;99.90;;;;;;5050150;28;20495;-68
2023/08/23 03:52:41;;;;;;;5.83;4.40;;;20.00;99.90;;;;;;5050083;28;20451;-68
2023/08/23 03:55:08;;;;;;;5.50;4.10;;;20.00;99.90;;;;;;5050410;28;20822;-68
2023/08/23 03:57:36;;;;;;;4.33;3.80;;;20.00;99.90;;;;;;5050247;28;20455;-68
2023/08/23 04:00:04;;;;;;;4.30;3.80;;;19.90;99.90;;;;;;5049118;28;21002;-68
2023/08/23 04:02:31;;;;;;;4.83;4.43;;;19.90;99.90;;;;;;5050171;28;20467;-68
2023/08/23 04:04:58;;;;;;;4.67;3.60;;;19.90;99.90;;;;;;5049778;28;20463;-68
2023/08/23 04:07:24;;;;;;;3.73;3.33;;;19.80;99.90;;;;;;5049838;28;20456;-68
2023/08/23 04:09:51;;;;;;;5.03;4.50;;;19.80;99.90;;;;;;5049458;28;20841;-68
2023/08/23 04:12:18;;;;;;;4.63;3.73;;;19.70;99.90;;;;;;5049880;28;20462;-68
2023/08/23 04:14:46;;;;;;;4.97;4.47;;;19.80;99.90;;;;;;5049631;28;20470;-68
2023/08/23 04:17:12;;;;;;;5.07;4.47;;;19.70;99.90;;;;;;5049773;28;20482;-69
2023/08/23 04:19:39;;;;;;;4.83;4.43;;;19.70;99.90;;;;;;5049641;28;20475;-68
2023/08/23 04:22:06;;;;;;;4.90;4.50;;;19.70;99.90;;;;;;5049599;28;20469;-68
2023/08/23 04:24:32;;;;;;;6.43;4.40;;;19.60;99.90;;;;;;5049962;28;20462;-68
2023/08/23 04:26:59;;;;;;;5.17;4.67;;;19.60;99.90;;;;;;5049346;28;20489;-68
2023/08/23 04:29:26;;;;;;;4.90;4.40;;;19.60;99.90;;;;;;5049922;28;20483;-68
2023/08/23 04:31:54;;;;;;;5.83;5.10;;;19.60;99.90;;;;;;5049035;28;20490;-68
2023/08/23 04:34:20;;;;;;;4.50;4.10;;;19.60;99.90;;;;;;5050109;28;20466;-68
2023/08/23 04:36:47;;;;;;;6.23;4.63;;;19.60;99.90;;;;;;5049726;28;20758;-68
2023/08/23 04:39:14;;;;;;;4.90;4.50;;;19.60;99.90;;;;;;5049954;28;20478;-68
2023/08/23 04:41:41;;;;;;;4.50;3.97;;;19.60;99.90;;;;;;5049302;28;20786;-68
2023/08/23 04:44:07;;;;;;;5.70;4.70;;;19.60;99.90;;;;;;5049692;28;20464;-68
2023/08/23 04:46:34;;;;;;;4.67;4.17;;;19.60;99.90;;;;;;5049586;28;20974;-67
2023/08/23 04:49:02;;;;;;;4.63;4.20;;;19.60;99.90;;;;;;5049171;28;20475;-68
2023/08/23 04:51:29;;;;;;;4.93;4.40;;;19.50;99.90;;;;;;5049470;28;20848;-68
2023/08/23 04:53:55;;;;;;;4.77;4.27;;;19.60;99.90;;;;;;5049351;28;20463;-68
2023/08/23 04:56:22;;;;;;;4.33;3.93;;;19.50;99.90;;;;;;5049138;28;20459;-68
2023/08/23 04:58:49;;;;;;;4.80;4.30;;;19.50;99.90;;;;;;5048457;28;20469;-68
2023/08/23 05:01:16;;;;;;;5.20;4.70;;;19.50;99.90;;;;;;5048789;28;20444;-68
2023/08/23 05:03:42;;;;;;;5.23;4.63;;;19.50;99.90;;;;;;5048996;28;20456;-68
2023/08/23 05:06:11;;;;;;;4.23;3.83;;;19.50;99.90;;;;;;5049046;28;20963;-68
2023/08/23 05:08:37;;;;;;;4.10;3.80;;;19.50;99.90;;;;;;5046265;28;20470;-69
2023/08/23 05:11:04;;;;;;;4.97;4.53;;;19.50;99.90;;;;;;5049302;28;20479;-68
2023/08/23 05:13:31;;;;;;;5.57;3.90;;;19.60;99.90;;;;;;5053314;28;20456;-68
2023/08/23 05:15:58;;;;;;;4.73;4.33;;;19.60;99.90;;;;;;5052340;28;20459;-68
2023/08/23 05:18:25;;;;;;;5.13;4.73;;;19.60;99.90;;;;;;5052557;28;20955;-68
2023/08/23 05:20:56;;;;;;;5.60;5.10;;;19.60;99.90;;;;;;5052033;28;20471;-68
2023/08/23 05:23:24;;;;;;;4.87;4.47;;;19.60;99.90;;;;;;5052987;28;20460;-67
2023/08/23 05:25:51;;;;;;;4.60;4.13;;;19.70;99.90;;;;;;5052626;28;20459;-68
2023/08/23 05:28:19;;;;;;;5.00;4.50;;;19.70;99.90;;;;;;5052571;28;20524;-68
2023/08/23 05:30:46;;;;;;;5.17;4.67;;;19.80;99.90;;;;;;5052296;28;20484;-68
2023/08/23 05:33:13;;;;;;;4.93;4.50;;;19.80;99.90;;;;;;5053254;28;20479;-68
2023/08/23 05:35:40;;;;;;;4.97;4.57;;;19.80;99.90;;;;;;5052890;28;20459;-68
2023/08/23 05:38:07;;;;;;;5.27;4.87;;;19.90;99.90;;;;;;5052456;28;20460;-69
2023/08/23 05:40:35;;;;;;;5.03;4.33;;;19.90;99.90;;;;;;5052596;28;20852;-70
2023/08/23 05:43:02;;;;;;;5.20;4.80;;;20.00;99.90;;;;;;5052572;28;20455;-69
2023/08/23 05:45:29;;;;;;;4.47;4.17;;;20.10;99.90;;;;;;5052732;28;20457;-69
2023/08/23 05:47:56;;;;;;;5.10;4.60;;;20.10;99.90;;;;;;5052303;28;20455;-69
2023/08/23 05:50:23;;;;;;;4.83;4.43;;;20.10;99.90;;;;;;5052567;28;20562;-69
2023/08/23 05:52:50;;;;;;;4.80;4.40;;;20.20;99.90;;;;;;5052544;28;20459;-70
2023/08/23 05:55:16;;;;;;;5.93;4.60;;;20.30;99.90;;;;;;5052840;28;20452;-69
2023/08/23 05:57:45;;;;;;;4.90;4.50;;;20.40;99.90;;;;;;5052613;28;20958;-69
2023/08/23 06:00:13;;;;;;;5.13;4.63;;;20.40;99.90;;;;;;5051666;28;20470;-69
2023/08/23 06:02:40;;;;;;;4.83;4.43;;;20.50;99.90;;;;;;5052701;28;20451;-69
2023/08/23 06:05:10;;;;;;;6.70;5.03;;;20.60;99.90;;;;;;5052108;28;20463;-69
2023/08/23 06:07:37;;;;;;;4.67;4.20;;;20.70;99.90;;;;;;5052214;28;20833;-69
2023/08/23 06:10:04;;;;;;;5.23;4.23;;;20.80;99.90;;;;;;5051694;28;20488;-69
2023/08/23 06:12:31;;;;;;;4.27;3.97;;;20.80;99.90;;;;;;5052297;28;20476;-69
2023/08/23 06:14:59;;;;;;;4.77;4.37;;;20.90;99.90;;;;;;5051912;28;20452;-69
2023/08/23 06:17:26;;;;;;;5.33;4.30;;;20.90;99.90;;;;;;5052142;28;20461;-69
2023/08/23 06:19:53;;;;;;;5.53;5.03;;;21.10;99.90;;;;;;5051869;28;20487;-69
2023/08/23 06:22:20;;;;;;;4.90;4.50;;;21.10;99.90;;;;;;5050926;28;20460;-69
2023/08/23 06:24:47;;;;;;;7.30;4.80;;;21.10;99.90;;;;;;5051856;28;20455;-69
2023/08/23 06:27:13;;;;;;;4.93;4.53;;;21.20;99.90;;;;;;5051528;28;20454;-69
2023/08/23 06:29:40;;;;;;;5.43;5.03;;;21.30;99.90;;;;;;5051827;28;20479;-69
2023/08/23 06:32:08;;;;;;;5.10;4.63;;;21.30;99.90;;;;;;5051296;28;20485;-69
2023/08/23 06:34:35;;;;;;;5.17;4.67;;;21.40;99.90;;;;;;5051944;28;20459;-69
2023/08/23 06:37:02;;;;;;;7.50;5.10;;;21.50;99.90;;;;;;5051412;28;20453;-69
2023/08/23 06:39:29;;;;;;;5.37;4.93;;;21.50;99.90;;;;;;5051921;28;20500;-69
2023/08/23 06:41:56;;;;;;;5.13;4.63;;;21.60;99.90;;;;;;5051421;28;20455;-69
2023/08/23 06:44:22;;;;;;;4.20;3.80;;;21.70;99.90;;;;;;5051624;28;20955;-69
2023/08/23 06:46:49;;;;;;;5.33;4.67;;;21.80;99.90;;;;;;5052093;28;20459;-69
2023/08/23 06:49:17;;;;;;;4.30;3.97;;;21.80;99.90;;;;;;5051359;28;20488;-69
2023/08/23 06:51:44;;;;;;;4.30;3.97;;;21.90;99.90;;;;;;5051321;28;20499;-69
2023/08/23 06:54:11;;;;;;;4.93;4.43;;;22.00;99.90;;;;;;5051613;28;20454;-69
2023/08/23 06:56:37;;;;;;;4.77;4.33;;;22.10;99.90;;;;;;5051633;28;20453;-69
2023/08/23 06:59:04;;;;;;;4.50;4.10;;;22.10;99.90;;;;;;5045599;28;20489;-69
2023/08/23 07:01:31;;;;;;;5.03;4.53;;;22.20;99.90;;;;;;5050832;28;20449;-69
2023/08/23 07:03:58;;;;;;;5.30;4.30;;;22.30;99.90;;;;;;5050867;28;20458;-69
2023/08/23 07:06:26;;;;;;;5.70;4.73;;;22.30;99.90;;;;;;5050806;28;20486;-69
2023/08/23 07:08:53;;;;;;;5.10;4.60;;;22.40;99.90;;;;;;5050714;28;20460;-69
2023/08/23 07:11:20;;;;;;;4.27;3.70;;;22.40;99.90;;;;;;5041821;28;21083;-69
2023/08/23 07:13:46;;;;;;;9.10;4.60;;;22.50;99.90;;;;;;5050449;28;20459;-69
2023/08/23 07:16:13;;;;;;;5.00;4.50;;;22.50;99.90;;;;;;5046155;28;20553;-69
2023/08/23 07:18:40;;;;;;;4.67;4.27;;;22.50;99.90;;;;;;5049245;28;20490;-69
2023/08/23 07:21:08;;;;;;;5.50;4.43;;;22.50;99.90;;;;;;5048406;28;20459;-67
2023/08/23 07:23:37;;;;;;;5.67;4.40;;;22.60;99.90;;;;;;5049178;28;20470;-67
2023/08/23 07:26:05;;;;;;;5.37;4.30;;;22.70;99.90;;;;;;5049510;28;20492;-67
2023/08/23 07:28:32;;;;;;;4.13;3.80;;;22.80;99.90;;;;;;5049740;28;20509;-67
2023/08/23 07:31:00;;;;;;;6.63;4.80;;;22.90;99.90;;;;;;5048533;28;20485;-67
2023/08/23 07:33:28;;;;;;;4.60;4.03;;;22.90;99.90;;;;;;5049827;28;20464;-67
2023/08/23 07:35:56;;;;;;;4.03;3.73;;;23.00;99.90;;;;;;5101969;22;20488;-68
2023/08/23 07:38:23;;;;;;;6.50;4.57;;;23.10;99.90;;;;;;5020947;28;20902;-68
2023/08/23 07:40:52;;;;;;;5.00;4.50;;;23.30;99.90;;;;;;5030103;28;20518;-68
2023/08/23 07:43:18;;;;;;;4.70;4.30;;;23.30;99.90;;;;;;5030429;28;20459;-68
2023/08/23 07:45:45;;;;;;;7.47;4.57;;;23.40;99.90;;;;;;5030320;28;20463;-68
2023/08/23 07:48:12;;;;;;;4.80;4.40;;;23.50;99.90;;;;;;5029728;28;20459;-68
2023/08/23 07:50:39;;;;;;;5.63;4.70;;;23.60;99.90;;;;;;5029951;28;20483;-67
2023/08/23 07:53:05;;;;;;;4.37;4.07;;;23.60;99.90;;;;;;5030182;28;20484;-68
2023/08/23 07:55:32;;;;;;;5.07;4.33;;;23.70;99.90;;;;;;5030151;28;20539;-67
2023/08/23 07:58:00;;;;;;;5.30;4.27;;;23.80;99.90;;;;;;5030276;28;20544;-68
2023/08/23 08:00:27;;;;;;;4.20;3.90;;;23.90;99.90;;;;;;5030175;28;20911;-68
2023/08/23 08:02:54;;;;;;;6.87;4.60;;;24.00;99.90;;;;;;5029986;28;20468;-68
2023/08/23 08:05:21;;;;;;;4.80;4.40;;;24.10;99.90;;;;;;5030421;28;20494;-68
2023/08/23 08:07:48;;;;;;;5.07;3.93;;;24.20;99.90;;;;;;5030388;28;20511;-68
2023/08/23 08:10:15;;;;;;;4.47;4.10;;;24.20;99.90;;;;;;5030067;28;20480;-68
2023/08/23 08:12:41;;;;;;;4.33;3.97;;;24.30;99.90;;;;;;5030062;28;20487;-68
2023/08/23 08:15:10;;;;;;;4.40;4.10;;;24.30;99.90;;;;;;5030397;28;20963;-68
2023/08/23 08:17:37;;;;;;;4.13;3.83;;;24.50;99.90;;;;;;5029866;28;20559;-68
2023/08/23 08:20:06;;;;;;;6.20;3.90;;;24.60;99.90;;;;;;5029994;28;20476;-68
2023/08/23 08:22:33;;;;;;;4.23;3.87;;;24.70;99.90;;;;;;5030196;28;21003;-68
2023/08/23 08:25:00;;;;;;;4.67;4.17;;;24.90;99.90;;;;;;5023856;28;20457;-68
2023/08/23 08:27:26;;;;;;;4.63;4.23;;;25.00;99.90;;;;;;5029581;28;20829;-68
2023/08/23 08:29:53;;;;;;;4.67;4.27;;;25.10;99.90;;;;;;5029246;28;20492;-68
2023/08/23 08:32:21;;;;;;;6.30;4.13;;;25.10;99.90;;;;;;5028969;28;20486;-68
2023/08/23 08:34:48;;;;;;;4.20;3.80;;;25.10;99.90;;;;;;5029422;28;20540;-68
2023/08/23 08:37:15;;;;;;;4.53;4.10;;;25.10;99.90;;;;;;5029156;28;20460;-68
2023/08/23 08:39:42;;;;;;;4.77;4.10;;;25.20;99.90;;;;;;5028920;28;20488;-68
2023/08/23 08:42:10;;;;;;;5.13;4.73;;;25.30;99.90;;;;;;5028630;28;20825;-68
2023/08/23 08:44:37;;;;;;;5.57;4.30;;;25.50;99.90;;;;;;5029309;28;20461;-68
2023/08/23 08:47:04;;;;;;;5.77;4.00;;;25.70;99.90;;;;;;5032266;28;20462;-68
2023/08/23 08:49:32;;;;;;;5.07;3.90;;;25.90;99.90;;;;;;5033955;28;20873;-68
2023/08/23 08:51:59;;;;;;;5.43;4.60;;;26.00;99.90;;;;;;5033542;28;20477;-68
2023/08/23 08:54:30;;;;;;;5.00;4.50;;;26.00;99.90;;;;;;5033861;28;20516;-68
2023/08/23 08:56:58;;;;;;;4.90;4.40;;;26.10;99.90;;;;;;5033601;28;20456;-66
2023/08/23 08:59:25;;;;;;;4.60;4.20;;;26.10;99.90;;;;;;5033774;28;20479;-68
2023/08/23 09:01:53;;;;;;;5.03;4.53;;;26.10;99.90;;;;;;5033387;28;20971;-68
2023/08/23 09:04:20;;;;;;;4.30;3.90;;;26.10;99.90;;;;;;5033665;28;20460;-68
2023/08/23 09:06:49;;;;;;;3.87;3.57;;;26.20;99.90;;;;;;5033824;28;20471;-68
2023/08/23 09:09:16;;;;;;;4.77;4.33;;;26.30;99.90;;;;;;5033198;28;20481;-68
2023/08/23 09:11:43;;;;;;;4.80;3.97;;;26.40;99.90;;;;;;5033152;28;20601;-68
2023/08/23 09:14:14;;;;;;;5.47;4.00;;;26.60;99.90;;;;;;5033420;28;20460;-69
2023/08/23 09:16:41;;;;;;;4.90;4.40;;;26.80;99.90;;;;;;5033747;28;20456;-70
2023/08/23 09:19:09;;;;;;;4.73;4.33;;;26.90;99.90;;;;;;5032946;28;20487;-68
2023/08/23 09:21:36;;;;;;;4.50;4.10;;;27.00;99.90;;;;;;5033467;28;20484;-68
2023/08/23 09:24:05;;;;;;;4.90;4.50;;;26.90;99.90;;;;;;5033777;28;20460;-68
2023/08/23 09:26:31;;;;;;;4.67;4.07;;;26.80;99.90;;;;;;5033318;28;20456;-68
2023/08/23 09:28:58;;;;;;;4.30;3.90;;;26.80;99.90;;;;;;5033360;28;20855;-68
2023/08/23 09:31:26;;;;;;;4.93;4.27;;;26.80;99.90;;;;;;5032946;28;20463;-68
2023/08/23 09:33:53;;;;;;;4.23;3.83;;;26.80;99.90;;;;;;5033350;28;20448;-68
2023/08/23 09:36:28;;;;;;;5.00;4.60;;;26.80;99.90;;;;;;5033007;28;20506;-68
2023/08/23 09:38:55;;;;;;;5.60;4.70;;;27.00;99.90;;;;;;5032938;28;20463;-68
2023/08/23 09:41:23;;;;;;;6.60;4.20;;;27.20;99.90;;;;;;5032748;28;20457;-68
2023/08/23 09:43:54;;;;;;;4.63;4.23;;;27.40;99.90;;;;;;5032856;28;20467;-69
2023/08/23 09:46:25;;;;;;;4.33;4.00;;;27.60;99.90;;;;;;5032918;28;20456;-68
2023/08/23 09:48:53;;;;;;;4.70;4.30;;;27.80;99.90;;;;;;5032438;28;20996;-68
2023/08/23 09:51:23;;;;;;;4.63;4.20;;;27.90;99.90;;;;;;5032461;28;20460;-68
2023/08/23 09:53:55;;;;;;;4.63;4.20;;;28.10;99.90;;;;;;5032539;28;20928;-68
2023/08/23 09:56:23;;;;;;;4.20;3.80;;;28.20;99.90;;;;;;5032879;28;20453;-68
2023/08/23 09:58:50;;;;;;;4.53;4.20;;;28.30;99.90;;;;;;5030958;28;20461;-68
2023/08/23 10:01:17;;;;;;;5.30;4.20;;;28.50;99.90;;;;;;5032214;28;20452;-68
2023/08/23 10:03:44;;;;;;;4.67;4.27;;;28.60;99.90;;;;;;5032562;28;20463;-68
2023/08/23 10:06:11;;;;;;;4.50;4.20;;;28.80;99.90;;;;;;5032338;28;20464;-68
2023/08/23 10:08:39;;;;;;;4.20;3.90;;;29.00;99.90;;;;;;5032282;28;20453;-68
2023/08/23 10:11:06;;;;;;;4.57;4.17;;;29.00;99.90;;;;;;5032319;28;20456;-68
2023/08/23 10:13:36;;;;;;;6.53;4.33;;;29.10;99.90;;;;;;5032161;28;20476;-68
2023/08/23 10:16:06;;;;;;;5.60;4.03;;;29.20;99.90;;;;;;5032456;28;20460;-68
2023/08/23 10:18:33;;;;;;;4.50;4.10;;;29.30;99.90;;;;;;5031848;28;20461;-68
2023/08/23 10:21:02;;;;;;;4.90;4.40;;;29.40;99.90;;;;;;5032140;28;20907;-68
2023/08/23 10:23:29;;;;;;;4.20;3.90;;;29.60;99.90;;;;;;5031985;28;20453;-68
2023/08/23 10:25:57;;;;;;;4.40;4.10;;;29.60;99.90;;;;;;5032120;28;20940;-68
2023/08/23 10:28:24;;;;;;;4.10;3.70;;;29.70;99.90;;;;;;5031899;28;20467;-68
2023/08/23 10:30:52;;;;;;;4.90;4.40;;;29.80;99.90;;;;;;5031625;28;20484;-68
2023/08/23 10:33:21;;;;;;;4.40;4.03;;;29.80;99.90;;;;;;5031854;28;20862;-68
2023/08/23 10:35:48;;;;;;;4.00;3.70;;;29.90;99.90;;;;;;5031768;28;20460;-68
2023/08/23 10:38:15;;;;;;;4.10;3.40;;;30.00;99.90;;;;;;5031647;28;20463;-68
2023/08/23 10:40:45;;;;;;;5.10;4.70;;;30.10;99.90;;;;;;5031442;28;20472;-68
2023/08/23 10:43:13;;;;;;;4.20;3.80;;;30.10;99.90;;;;;;5031945;28;20952;-68
2023/08/23 10:45:52;;;;;;;4.80;4.40;;;30.20;99.90;;;;;;5023696;28;20466;-68
2023/08/23 10:48:21;;;;;;;5.30;3.97;;;30.30;99.90;;;;;;5031609;28;20461;-67
2023/08/23 10:50:48;;;;;;;4.70;4.30;;;30.50;99.90;;;;;;5031171;28;20480;-68
2023/08/23 10:53:16;;;;;;;4.67;4.27;;;30.60;99.90;;;;;;5031623;28;20476;-68
2023/08/23 10:55:42;;;;;;;4.33;3.93;;;30.60;99.90;;;;;;5023790;28;20467;-68
2023/08/23 10:58:09;;;;;;;4.43;3.87;;;30.70;99.90;;;;;;5031757;28;20755;-68
2023/08/23 11:00:37;;;;;;;4.23;3.90;;;30.70;99.90;;;;;;5031109;28;20480;-68
2023/08/23 11:03:05;;;;;;;4.37;3.97;;;30.70;99.90;;;;;;5031978;28;20452;-68
2023/08/23 11:05:33;;;;;;;3.87;3.57;;;30.70;99.90;;;;;;5031621;28;20460;-68
2023/08/23 11:08:00;;;;;;;4.87;4.40;;;30.70;99.90;;;;;;5031304;28;20515;-68
2023/08/23 11:10:27;;;;;;;4.50;4.10;;;30.70;99.90;;;;;;5030446;28;20495;-68
2023/08/23 11:12:53;;;;;;;4.53;4.13;;;30.80;99.90;;;;;;5031262;28;20507;-68
2023/08/23 11:15:21;;;;;;;3.97;3.67;;;30.70;99.90;;;;;;5031341;28;20780;-68
2023/08/23 11:17:48;;;;;;;4.77;4.27;;;30.70;99.90;;;;;;5031063;28;20469;-68
2023/08/23 11:20:17;;;;;;;4.47;4.17;;;30.70;99.90;;;;;;5030824;28;20484;-68
2023/08/23 11:22:44;;;;;;;4.90;4.50;;;30.80;99.90;;;;;;5023207;28;20460;-68
2023/08/23 11:25:11;;;;;;;4.30;4.00;;;30.90;99.90;;;;;;5031082;28;20452;-68
2023/08/23 11:27:37;;;;;;;4.37;3.97;;;31.00;99.90;;;;;;5030579;28;20464;-67
2023/08/23 11:30:05;;;;;;;3.73;3.43;;;31.00;99.90;;;;;;5030643;28;20484;-68
2023/08/23 11:32:32;;;;;;;3.90;3.60;;;31.10;99.90;;;;;;5030888;28;20483;-68
2023/08/23 11:35:00;;;;;;;4.77;3.83;;;31.20;99.90;;;;;;5030920;28;20448;-68
2023/08/23 11:37:29;;;;;;;3.50;3.20;;;31.30;99.90;;;;;;5030721;28;20460;-68
2023/08/23 11:39:56;;;;;;;4.47;4.07;;;31.40;99.90;;;;;;5030464;28;20481;-68
2023/08/23 11:42:23;;;;;;;4.20;3.90;;;31.40;99.90;;;;;;5030373;28;20483;-68
2023/08/23 11:44:50;;;;;;;4.17;3.80;;;31.50;99.90;;;;;;5030499;28;20456;-68
2023/08/23 11:47:18;;;;;;;4.30;4.00;;;31.60;99.90;;;;;;5030426;28;20445;-68
2023/08/23 11:49:47;;;;;;;4.20;3.80;;;31.70;99.90;;;;;;5030675;28;20856;-68
2023/08/23 11:52:17;;;;;;;4.67;3.80;;;31.80;99.90;;;;;;5030442;28;20475;-68
2023/08/23 11:54:45;;;;;;;3.93;3.63;;;31.80;99.90;;;;;;5030240;28;20468;-68
2023/08/23 11:57:15;;;;;;;4.40;4.00;;;31.90;99.90;;;;;;5030432;28;20479;-68
2023/08/23 11:59:42;;;;;;;5.00;3.80;;;31.90;99.90;;;;;;5030119;28;20479;-68
2023/08/23 12:02:08;;;;;;;4.10;3.73;;;31.90;99.90;;;;;;5030198;28;20950;-68
2023/08/23 12:04:35;;;;;;;3.90;3.60;;;31.80;99.90;;;;;;5030068;28;20475;-68
2023/08/23 12:07:02;;;;;;;4.03;3.73;;;31.90;99.90;;;;;;5030079;28;20514;-68
2023/08/23 12:09:29;;;;;;;4.13;3.83;;;31.90;99.90;;;;;;5030144;28;20489;-68
2023/08/23 12:11:59;;;;;;;4.63;3.80;;;32.00;99.90;;;;;;5029954;28;20456;-67
2023/08/23 12:14:28;;;;;;;3.97;3.67;;;32.00;99.90;;;;;;5030092;28;20587;-68
2023/08/23 12:16:54;;;;;;;4.10;3.80;;;32.00;99.90;;;;;;5030105;28;20948;-68
2023/08/23 12:19:21;;;;;;;4.17;3.87;;;32.00;99.90;;;;;;5030011;28;20477;-68
2023/08/23 12:21:49;;;;;;;6.57;4.13;;;31.90;99.90;;;;;;5020809;28;20471;-68
2023/08/23 12:24:16;;;;;;;3.70;3.40;;;31.80;99.90;;;;;;5030252;28;20456;-68
2023/08/23 12:26:43;;;;;;;4.50;4.10;;;31.60;99.90;;;;;;5029906;28;20449;-68
2023/08/23 12:29:11;;;;;;;4.10;3.70;;;31.50;99.90;;;;;;5030027;28;21022;-68
2023/08/23 12:31:38;;;;;;;4.23;3.83;;;31.30;99.90;;;;;;5029548;28;20464;-68
2023/08/23 12:34:05;;;;;;;5.13;3.47;;;31.40;99.90;;;;;;5030080;28;20893;-68
2023/08/23 12:36:31;;;;;;;4.60;3.87;;;31.50;99.90;;;;;;5029752;28;20456;-68
2023/08/23 12:39:00;;;;;;;3.77;3.30;;;31.70;99.90;;;;;;5029902;28;20487;-68
2023/08/23 12:41:27;;;;;;;4.40;4.00;;;31.80;99.90;;;;;;5029565;28;20456;-68
2023/08/23 12:43:54;;;;;;;4.33;3.93;;;32.00;99.90;;;;;;5029497;28;20526;-68
2023/08/23 12:46:22;;;;;;;4.10;3.60;;;32.00;99.90;;;;;;5028482;28;20467;-68
2023/08/23 12:48:49;;;;;;;4.00;3.60;;;32.00;99.90;;;;;;5028466;28;20460;-68